createdAt,value
2017-08-15T00:00:24.461Z,15.60
2017-08-15T00:02:52.068Z,15.60
2017-08-15T00:05:19.601Z,15.50
2017-08-15T00:07:47.187Z,15.50
2017-08-15T00:10:14.706Z,15.50
2017-08-15T00:12:43.110Z,15.40
2017-08-15T00:15:10.638Z,15.40
2017-08-15T00:17:38.158Z,15.40
2017-08-15T00:20:05.908Z,15.40
2017-08-15T00:22:33.434Z,15.40
2017-08-15T00:25:01.746Z,15.40
2017-08-15T00:27:29.289Z,15.30
2017-08-15T00:29:56.865Z,15.30
2017-08-15T00:32:24.386Z,15.30
2017-08-15T00:34:52.697Z,15.20
2017-08-15T00:37:20.266Z,15.20
2017-08-15T00:39:47.818Z,15.10
2017-08-15T00:42:15.381Z,15.10
2017-08-15T00:44:42.902Z,15.10
2017-08-15T00:47:11.193Z,15.00
2017-08-15T00:49:38.736Z,15.00
2017-08-15T00:52:07.154Z,15.00
2017-08-15T00:54:34.677Z,15.00
2017-08-15T00:57:03.093Z,14.90
2017-08-15T00:59:30.656Z,14.90
2017-08-15T01:01:58.211Z,14.90
2017-08-15T01:04:25.875Z,15.00
2017-08-15T01:06:53.396Z,15.00
2017-08-15T01:09:21.673Z,14.90
2017-08-15T01:11:49.989Z,14.90
2017-08-15T01:14:17.650Z,14.90
2017-08-15T01:16:45.217Z,14.90
2017-08-15T01:19:12.776Z,14.80
2017-08-15T01:21:40.328Z,14.80
2017-08-15T01:24:07.894Z,14.80
2017-08-15T01:26:35.599Z,14.80
2017-08-15T01:29:03.130Z,14.70
2017-08-15T01:31:30.668Z,14.70
2017-08-15T01:33:58.202Z,14.70
2017-08-15T01:36:25.721Z,14.60
2017-08-15T01:38:53.246Z,14.60
2017-08-15T01:41:20.804Z,14.60
2017-08-15T01:43:48.382Z,14.60
2017-08-15T01:46:15.925Z,14.60
2017-08-15T01:48:43.485Z,14.50
2017-08-15T01:51:11.148Z,14.50
2017-08-15T01:53:38.701Z,14.50
2017-08-15T01:56:06.265Z,14.50
2017-08-15T01:58:33.829Z,14.40
2017-08-15T02:01:01.392Z,14.40
2017-08-15T02:03:29.049Z,14.40
2017-08-15T02:05:56.605Z,14.40
2017-08-15T02:08:24.205Z,14.40
2017-08-15T02:10:51.736Z,14.40
2017-08-15T02:13:19.272Z,14.40
2017-08-15T02:15:46.807Z,14.40
2017-08-15T02:18:15.227Z,14.30
2017-08-15T02:20:42.750Z,14.30
2017-08-15T02:23:11.037Z,14.30
2017-08-15T02:25:38.584Z,14.30
2017-08-15T02:28:06.873Z,14.20
2017-08-15T02:30:34.458Z,14.20
2017-08-15T02:33:01.990Z,14.20
2017-08-15T02:35:29.508Z,14.20
2017-08-15T02:37:57.030Z,14.20
2017-08-15T02:40:24.567Z,14.10
2017-08-15T02:42:52.258Z,14.10
2017-08-15T02:45:19.853Z,14.00
2017-08-15T02:47:47.477Z,14.00
2017-08-15T02:50:15.006Z,14.00
2017-08-15T02:52:43.322Z,13.90
2017-08-15T02:55:10.885Z,13.90
2017-08-15T02:57:38.413Z,13.90
2017-08-15T03:00:05.947Z,13.80
2017-08-15T03:02:34.261Z,13.80
2017-08-15T03:05:01.773Z,13.80
2017-08-15T03:07:29.293Z,13.80
2017-08-15T03:09:56.836Z,13.80
2017-08-15T03:12:24.349Z,13.80
2017-08-15T03:14:51.967Z,13.80
2017-08-15T03:17:19.525Z,13.70
2017-08-15T03:19:47.089Z,13.70
2017-08-15T03:22:15.338Z,13.70
2017-08-15T03:24:42.878Z,13.70
2017-08-15T03:27:11.222Z,13.70
2017-08-15T03:29:38.760Z,13.80
2017-08-15T03:32:06.292Z,13.80
2017-08-15T03:34:33.883Z,13.80
2017-08-15T03:37:01.444Z,13.80
2017-08-15T03:39:28.998Z,13.80
2017-08-15T03:41:56.518Z,13.80
2017-08-15T03:44:24.802Z,13.70
2017-08-15T03:46:53.317Z,13.70
2017-08-15T03:49:20.837Z,13.70
2017-08-15T03:51:49.122Z,13.60
2017-08-15T03:54:16.713Z,13.60
2017-08-15T03:56:44.241Z,13.60
2017-08-15T03:59:12.553Z,13.60
2017-08-15T04:01:40.415Z,13.60
2017-08-15T04:04:07.973Z,13.70
2017-08-15T04:06:35.489Z,13.60
2017-08-15T04:09:03.813Z,13.60
2017-08-15T04:11:31.370Z,13.60
2017-08-15T04:13:58.892Z,13.60
2017-08-15T04:16:26.659Z,13.50
2017-08-15T04:18:54.946Z,13.50
2017-08-15T04:21:22.503Z,13.50
2017-08-15T04:23:50.094Z,13.50
2017-08-15T04:26:17.652Z,13.50
2017-08-15T04:28:45.174Z,13.50
2017-08-15T04:31:13.473Z,13.60
2017-08-15T04:33:41.049Z,13.50
2017-08-15T04:36:08.611Z,13.60
2017-08-15T04:38:36.295Z,13.70
2017-08-15T04:41:03.932Z,13.70
2017-08-15T04:43:31.458Z,13.80
2017-08-15T04:46:00.096Z,14.00
2017-08-15T04:48:27.643Z,14.00
2017-08-15T04:50:55.170Z,14.10
2017-08-15T04:53:22.701Z,14.10
2017-08-15T04:55:50.419Z,14.30
2017-08-15T04:58:17.942Z,14.40
2017-08-15T05:00:46.357Z,14.60
2017-08-15T05:03:13.885Z,14.60
2017-08-15T05:05:42.165Z,14.80
2017-08-15T05:08:10.470Z,14.90
2017-08-15T05:10:38.033Z,14.90
2017-08-15T05:13:05.595Z,15.00
2017-08-15T05:15:33.149Z,15.10
2017-08-15T05:18:00.708Z,15.30
2017-08-15T05:20:28.229Z,15.40
2017-08-15T05:22:56.531Z,15.60
2017-08-15T05:25:24.048Z,15.60
2017-08-15T05:27:51.669Z,15.70
2017-08-15T05:30:19.224Z,15.80
2017-08-15T05:32:46.800Z,15.90
2017-08-15T05:35:14.346Z,16.00
2017-08-15T05:37:41.906Z,16.10
2017-08-15T05:40:09.416Z,16.30
2017-08-15T05:42:37.746Z,16.50
2017-08-15T05:45:05.293Z,16.50
2017-08-15T05:47:33.066Z,16.60
2017-08-15T05:50:00.630Z,16.70
2017-08-15T05:52:28.170Z,16.80
2017-08-15T05:54:55.689Z,16.90
2017-08-15T05:57:23.224Z,17.00
2017-08-15T05:59:50.765Z,17.10
2017-08-15T06:02:18.289Z,17.30
2017-08-15T06:04:46.632Z,17.40
2017-08-15T06:07:14.173Z,17.40
2017-08-15T06:09:41.725Z,17.60
2017-08-15T06:12:09.281Z,17.70
2017-08-15T06:14:36.837Z,17.80
2017-08-15T06:17:04.399Z,17.80
2017-08-15T06:19:32.061Z,17.90
2017-08-15T06:21:59.597Z,18.00
2017-08-15T06:24:27.177Z,18.10
2017-08-15T06:26:54.753Z,18.20
2017-08-15T06:29:22.293Z,18.30
2017-08-15T06:31:49.904Z,18.40
2017-08-15T06:34:17.941Z,18.50
2017-08-15T06:36:45.493Z,18.60
2017-08-15T06:39:13.154Z,18.60
2017-08-15T06:41:40.670Z,18.70
2017-08-15T06:44:08.992Z,18.90
2017-08-15T06:46:36.654Z,18.90
2017-08-15T06:49:04.182Z,19.00
2017-08-15T06:51:32.597Z,19.20
2017-08-15T06:54:00.161Z,19.20
2017-08-15T06:56:27.683Z,19.30
2017-08-15T06:58:55.237Z,19.50
2017-08-15T07:01:23.525Z,19.60
2017-08-15T07:03:51.049Z,19.60
2017-08-15T07:06:18.646Z,19.80
2017-08-15T07:08:46.175Z,19.80
2017-08-15T07:11:13.991Z,20.00
2017-08-15T07:13:41.531Z,20.20
2017-08-15T07:16:09.059Z,20.30
2017-08-15T07:18:36.671Z,20.50
2017-08-15T07:21:04.205Z,20.60
2017-08-15T07:23:31.833Z,20.70
2017-08-15T07:25:59.466Z,20.90
2017-08-15T07:28:27.019Z,20.90
2017-08-15T07:30:54.542Z,21.10
2017-08-15T07:33:22.131Z,21.10
2017-08-15T07:35:49.673Z,21.30
2017-08-15T07:38:17.252Z,21.30
2017-08-15T07:40:44.814Z,21.50
2017-08-15T07:43:12.472Z,21.60
2017-08-15T07:45:39.992Z,21.60
2017-08-15T07:48:08.942Z,21.80
2017-08-15T07:50:36.684Z,21.80
2017-08-15T07:53:04.318Z,22.00
2017-08-15T07:55:31.858Z,22.00
2017-08-15T07:57:59.474Z,21.90
2017-08-15T08:00:26.998Z,22.00
2017-08-15T08:02:54.586Z,22.20
2017-08-15T08:05:22.125Z,22.30
2017-08-15T08:07:49.807Z,22.20
2017-08-15T08:10:17.369Z,22.30
2017-08-15T08:12:44.933Z,22.40
2017-08-15T08:15:12.494Z,22.40
2017-08-15T08:17:40.149Z,22.60
2017-08-15T08:20:07.708Z,22.60
2017-08-15T08:22:35.371Z,22.70
2017-08-15T08:25:02.946Z,22.80
2017-08-15T08:27:30.493Z,22.90
2017-08-15T08:29:58.050Z,23.00
2017-08-15T08:32:25.560Z,23.00
2017-08-15T08:34:53.885Z,23.10
2017-08-15T08:37:21.403Z,23.00
2017-08-15T08:39:49.687Z,23.40
2017-08-15T08:42:17.295Z,23.40
2017-08-15T08:44:44.842Z,23.50
2017-08-15T08:47:12.383Z,23.50
2017-08-15T08:49:39.964Z,23.70
2017-08-15T08:52:07.486Z,23.90
2017-08-15T08:54:35.838Z,24.00
2017-08-15T08:57:03.464Z,24.00
2017-08-15T08:59:30.990Z,24.10
2017-08-15T09:01:58.510Z,24.20
2017-08-15T09:04:26.242Z,24.20
2017-08-15T09:06:53.908Z,24.30
2017-08-15T09:09:21.434Z,24.40
2017-08-15T09:11:48.974Z,24.40
2017-08-15T09:14:16.494Z,24.50
2017-08-15T09:16:44.050Z,24.60
2017-08-15T09:19:11.690Z,24.70
2017-08-15T09:21:40.065Z,24.90
2017-08-15T09:24:07.581Z,24.90
2017-08-15T09:26:35.161Z,25.00
2017-08-15T09:29:07.277Z,25.20
2017-08-15T09:31:34.797Z,25.20
2017-08-15T09:34:02.341Z,25.20
2017-08-15T09:36:30.673Z,25.30
2017-08-15T09:38:58.332Z,25.30
2017-08-15T09:41:27.226Z,25.20
2017-08-15T09:43:55.562Z,25.20
2017-08-15T09:46:23.083Z,25.20
2017-08-15T09:48:50.627Z,25.20
2017-08-15T09:51:18.154Z,25.30
2017-08-15T09:53:45.722Z,25.40
2017-08-15T09:56:14.142Z,25.50
2017-08-15T09:58:47.404Z,25.70
2017-08-15T10:01:14.957Z,25.90
2017-08-15T10:03:42.530Z,26.00
2017-08-15T10:06:10.056Z,26.00
2017-08-15T10:08:37.646Z,26.10
2017-08-15T10:11:05.210Z,26.20
2017-08-15T10:13:32.739Z,26.40
2017-08-15T10:16:00.280Z,26.60
2017-08-15T10:18:27.830Z,26.70
2017-08-15T10:20:56.160Z,26.80
2017-08-15T10:23:23.721Z,26.80
2017-08-15T10:25:51.475Z,27.00
2017-08-15T10:28:18.993Z,27.10
2017-08-15T10:30:47.419Z,27.40
2017-08-15T10:33:15.079Z,27.40
2017-08-15T10:35:42.597Z,27.70
2017-08-15T10:38:10.202Z,27.80
2017-08-15T10:40:37.728Z,28.00
2017-08-15T10:43:06.780Z,28.30
2017-08-15T10:45:34.516Z,28.30
2017-08-15T10:48:02.129Z,28.50
2017-08-15T10:50:29.750Z,29.00
2017-08-15T10:52:57.405Z,29.00
2017-08-15T10:55:24.927Z,29.40
2017-08-15T10:57:52.454Z,29.70
2017-08-15T11:00:19.998Z,30.20
2017-08-15T11:02:47.536Z,30.90
2017-08-15T11:05:15.066Z,31.70
2017-08-15T11:07:42.660Z,32.30
2017-08-15T11:10:10.180Z,32.70
2017-08-15T11:12:38.462Z,34.10
2017-08-15T11:15:06.050Z,34.10
2017-08-15T11:17:34.634Z,35.10
2017-08-15T11:20:02.179Z,36.10
2017-08-15T11:22:29.760Z,37.00
2017-08-15T11:24:57.278Z,38.30
2017-08-15T11:27:25.565Z,39.60
2017-08-15T11:29:53.153Z,39.60
2017-08-15T11:32:20.813Z,40.30
2017-08-15T11:34:48.337Z,40.40
2017-08-15T11:37:16.643Z,40.00
2017-08-15T11:39:44.165Z,40.00
2017-08-15T11:42:12.449Z,40.60
2017-08-15T11:44:40.837Z,41.70
2017-08-15T11:47:08.521Z,41.60
2017-08-15T11:49:36.129Z,42.60
2017-08-15T11:52:03.748Z,42.90
2017-08-15T11:54:31.286Z,43.80
2017-08-15T11:56:58.811Z,45.00
2017-08-15T11:59:27.241Z,45.50
2017-08-15T12:01:54.777Z,45.50
2017-08-15T12:04:22.402Z,46.00
2017-08-15T12:06:49.994Z,46.50
2017-08-15T12:09:17.586Z,45.60
2017-08-15T12:11:45.227Z,45.60
2017-08-15T12:14:12.806Z,46.10
2017-08-15T12:16:40.365Z,46.70
2017-08-15T12:19:07.930Z,47.90
2017-08-15T12:21:35.482Z,48.00
2017-08-15T12:24:03.663Z,47.80
2017-08-15T12:26:31.186Z,47.90
2017-08-15T12:28:58.725Z,48.30
2017-08-15T12:31:27.038Z,49.30
2017-08-15T12:33:54.713Z,49.60
2017-08-15T12:36:22.281Z,48.80
2017-08-15T12:38:49.833Z,49.30
2017-08-15T12:41:17.362Z,49.30
2017-08-15T12:43:44.897Z,48.30
2017-08-15T12:46:12.426Z,49.10
2017-08-15T12:48:39.953Z,49.60
2017-08-15T12:51:07.526Z,49.30
2017-08-15T12:53:35.048Z,49.70
2017-08-15T12:56:03.365Z,50.80
2017-08-15T12:58:30.984Z,50.80
2017-08-15T13:00:58.697Z,48.90
2017-08-15T13:03:26.249Z,48.60
2017-08-15T13:05:53.783Z,49.70
2017-08-15T13:08:21.366Z,49.90
2017-08-15T13:10:48.958Z,49.40
2017-08-15T13:13:16.830Z,49.30
2017-08-15T13:15:44.372Z,49.40
2017-08-15T13:18:11.890Z,50.10
2017-08-15T13:20:39.498Z,50.50
2017-08-15T13:23:07.328Z,51.40
2017-08-15T13:25:34.846Z,50.90
2017-08-15T13:28:03.152Z,49.70
2017-08-15T13:30:30.673Z,49.70
2017-08-15T13:32:58.199Z,49.90
2017-08-15T13:35:25.749Z,49.50
2017-08-15T13:37:53.282Z,49.60
2017-08-15T13:40:20.824Z,49.30
2017-08-15T13:42:49.251Z,49.40
2017-08-15T13:45:16.803Z,49.40
2017-08-15T13:47:44.330Z,46.10
2017-08-15T13:50:12.641Z,48.40
2017-08-15T13:52:40.356Z,48.40
2017-08-15T13:55:08.639Z,48.80
2017-08-15T13:57:36.945Z,49.20
2017-08-15T14:00:04.469Z,49.10
2017-08-15T14:02:32.762Z,49.80
2017-08-15T14:05:01.068Z,47.70
2017-08-15T14:07:28.589Z,47.70
2017-08-15T14:09:56.880Z,44.00
2017-08-15T14:12:24.466Z,44.00
2017-08-15T14:14:52.072Z,44.10
2017-08-15T14:17:19.594Z,44.50
2017-08-15T14:19:47.142Z,43.10
2017-08-15T14:22:14.666Z,41.00
2017-08-15T14:24:43.222Z,40.90
2017-08-15T14:27:10.762Z,40.90
2017-08-15T14:29:38.282Z,40.20
2017-08-15T14:32:05.813Z,39.50
2017-08-15T14:34:34.121Z,40.10
2017-08-15T14:37:01.657Z,40.00
2017-08-15T14:39:29.945Z,39.70
2017-08-15T14:41:57.489Z,39.60
2017-08-15T14:44:25.777Z,37.50
2017-08-15T14:46:54.083Z,36.30
2017-08-15T14:49:21.626Z,36.30
2017-08-15T14:51:49.153Z,35.80
2017-08-15T14:54:16.687Z,35.10
2017-08-15T14:56:44.225Z,34.90
2017-08-15T14:59:11.741Z,34.60
2017-08-15T15:01:40.031Z,35.90
2017-08-15T15:04:07.829Z,35.90
2017-08-15T15:06:35.354Z,36.40
2017-08-15T15:09:02.870Z,37.80
2017-08-15T15:11:30.423Z,38.70
2017-08-15T15:13:57.939Z,39.00
2017-08-15T15:16:25.467Z,39.90
2017-08-15T15:18:53.792Z,40.00
2017-08-15T15:21:21.312Z,40.00
2017-08-15T15:23:48.850Z,38.80
2017-08-15T15:26:16.399Z,38.20
2017-08-15T15:28:43.978Z,37.00
2017-08-15T15:31:11.501Z,36.60
2017-08-15T15:33:39.049Z,36.00
2017-08-15T15:36:06.573Z,35.60
2017-08-15T15:38:34.881Z,34.30
2017-08-15T15:41:02.417Z,34.30
2017-08-15T15:43:30.001Z,34.30
2017-08-15T15:45:57.522Z,34.30
2017-08-15T15:48:25.836Z,33.60
2017-08-15T15:50:53.442Z,33.60
2017-08-15T15:53:20.961Z,32.90
2017-08-15T15:55:48.516Z,32.80
2017-08-15T15:58:16.092Z,33.00
2017-08-15T16:00:43.994Z,32.90
2017-08-15T16:03:12.324Z,32.60
2017-08-15T16:05:39.856Z,32.50
2017-08-15T16:08:07.540Z,32.30
2017-08-15T16:10:35.076Z,32.00
2017-08-15T16:13:02.610Z,31.80
2017-08-15T16:15:30.906Z,31.60
2017-08-15T16:17:59.216Z,31.40
2017-08-15T16:20:26.774Z,31.40
2017-08-15T16:22:54.294Z,31.20
2017-08-15T16:25:22.602Z,30.80
2017-08-15T16:27:50.126Z,30.70
2017-08-15T16:30:18.517Z,30.50
2017-08-15T16:32:46.061Z,30.50
2017-08-15T16:35:14.355Z,30.50
2017-08-15T16:37:41.877Z,30.40
2017-08-15T16:40:09.426Z,30.20
2017-08-15T16:42:36.945Z,30.30
2017-08-15T16:45:04.470Z,30.30
2017-08-15T16:47:32.782Z,30.10
2017-08-15T16:50:00.309Z,30.10
2017-08-15T16:52:28.593Z,30.10
2017-08-15T16:54:56.899Z,29.90
2017-08-15T16:57:24.423Z,29.90
2017-08-15T16:59:52.713Z,29.70
2017-08-15T17:02:20.251Z,29.70
2017-08-15T17:04:48.590Z,29.50
2017-08-15T17:07:16.237Z,29.50
2017-08-15T17:09:43.779Z,29.30
2017-08-15T17:12:11.302Z,29.20
2017-08-15T17:14:39.197Z,29.10
2017-08-15T17:17:06.807Z,28.90
2017-08-15T17:19:34.350Z,28.70
2017-08-15T17:22:01.878Z,28.50
2017-08-15T17:24:29.665Z,28.30
2017-08-15T17:26:57.214Z,28.20
2017-08-15T17:29:24.840Z,28.00
2017-08-15T17:31:53.278Z,27.80
2017-08-15T17:34:20.830Z,27.80
2017-08-15T17:36:48.354Z,27.70
2017-08-15T17:39:16.671Z,27.40
2017-08-15T17:41:44.290Z,27.40
2017-08-15T17:44:12.581Z,27.10
2017-08-15T17:46:40.173Z,27.20
2017-08-15T17:49:07.730Z,27.00
2017-08-15T17:51:35.277Z,26.90
2017-08-15T17:54:02.844Z,26.80
2017-08-15T17:56:30.491Z,26.70
2017-08-15T17:58:58.267Z,26.60
2017-08-15T18:01:25.823Z,26.50
2017-08-15T18:03:53.923Z,26.40
2017-08-15T18:06:21.501Z,26.20
2017-08-15T18:08:49.149Z,26.10
2017-08-15T18:11:16.777Z,26.00
2017-08-15T18:13:44.436Z,26.00
2017-08-15T18:16:11.999Z,25.90
2017-08-15T18:18:39.563Z,25.80
2017-08-15T18:21:07.526Z,25.90
2017-08-15T18:23:35.091Z,25.80
2017-08-15T18:26:02.647Z,25.60
2017-08-15T18:28:30.204Z,25.50
2017-08-15T18:30:57.744Z,25.30
2017-08-15T18:33:25.602Z,25.20
2017-08-15T18:35:53.192Z,25.30
2017-08-15T18:38:20.745Z,25.20
2017-08-15T18:40:48.474Z,25.20
2017-08-15T18:43:16.892Z,24.90
2017-08-15T18:45:44.554Z,24.90
2017-08-15T18:48:12.078Z,24.70
2017-08-15T18:50:39.602Z,24.50
2017-08-15T18:53:07.144Z,24.20
2017-08-15T18:55:34.678Z,23.80
2017-08-15T18:58:02.261Z,23.00
2017-08-15T19:00:29.929Z,22.20
2017-08-15T19:02:57.476Z,21.60
2017-08-15T19:05:25.038Z,21.20
2017-08-15T19:07:52.592Z,21.10
2017-08-15T19:10:20.156Z,21.00
2017-08-15T19:12:47.728Z,20.90
2017-08-15T19:15:15.382Z,20.90
2017-08-15T19:17:42.927Z,20.80
2017-08-15T19:20:10.746Z,20.80
2017-08-15T19:22:39.113Z,20.60
2017-08-15T19:25:06.670Z,20.50
2017-08-15T19:27:34.210Z,20.50
2017-08-15T19:30:01.759Z,20.40
2017-08-15T19:32:29.290Z,20.40
2017-08-15T19:34:56.866Z,20.30
2017-08-15T19:37:24.426Z,20.30
2017-08-15T19:39:51.972Z,20.30
2017-08-15T19:42:19.554Z,20.30
2017-08-15T19:44:47.100Z,20.30
2017-08-15T19:47:14.662Z,20.30
2017-08-15T19:49:42.246Z,20.30
2017-08-15T19:52:09.830Z,20.30
2017-08-15T19:54:37.372Z,20.30
2017-08-15T19:57:04.902Z,20.20
2017-08-15T19:59:32.446Z,20.10
2017-08-15T20:02:00.017Z,20.10
2017-08-15T20:04:27.543Z,20.00
2017-08-15T20:06:55.955Z,19.90
2017-08-15T20:09:23.481Z,19.90
2017-08-15T20:11:51.815Z,19.90
2017-08-15T20:14:19.365Z,19.80
2017-08-15T20:16:46.917Z,19.80
2017-08-15T20:19:14.437Z,19.70
2017-08-15T20:21:42.835Z,19.50
2017-08-15T20:24:10.417Z,19.50
2017-08-15T20:26:37.944Z,19.50
2017-08-15T20:29:05.631Z,19.40
2017-08-15T20:31:33.150Z,19.30
2017-08-15T20:34:01.918Z,19.20
2017-08-15T20:36:29.760Z,19.10
2017-08-15T20:38:57.769Z,19.20
2017-08-15T20:41:26.432Z,19.10
2017-08-15T20:43:54.051Z,19.00
2017-08-15T20:46:21.643Z,19.10
2017-08-15T20:48:49.231Z,19.10
2017-08-15T20:51:17.576Z,19.00
2017-08-15T20:53:45.120Z,18.90
2017-08-15T20:56:12.678Z,19.00
2017-08-15T20:58:40.232Z,19.00
2017-08-15T21:01:07.806Z,19.00
2017-08-15T21:03:35.329Z,19.00
2017-08-15T21:06:02.873Z,19.00
2017-08-15T21:08:31.293Z,19.00
2017-08-15T21:10:58.821Z,19.00
2017-08-15T21:13:26.353Z,19.00
2017-08-15T21:15:53.985Z,19.00
2017-08-15T21:18:21.500Z,19.00
2017-08-15T21:20:49.073Z,19.00
2017-08-15T21:23:16.697Z,19.00
2017-08-15T21:25:44.216Z,18.90
2017-08-15T21:28:11.800Z,19.00
2017-08-15T21:30:39.435Z,18.90
2017-08-15T21:33:06.958Z,18.90
2017-08-15T21:35:34.556Z,18.80
2017-08-15T21:38:02.104Z,18.80
2017-08-15T21:40:29.758Z,18.80
2017-08-15T21:42:57.298Z,18.80
2017-08-15T21:45:24.822Z,18.80
2017-08-15T21:47:53.985Z,18.80
2017-08-15T21:50:21.667Z,18.80
2017-08-15T21:52:49.303Z,18.80
2017-08-15T21:55:16.830Z,18.80
2017-08-15T21:57:45.242Z,18.80
2017-08-15T22:00:12.753Z,18.70
2017-08-15T22:02:40.277Z,18.70
2017-08-15T22:05:07.819Z,18.60
2017-08-15T22:07:35.351Z,18.60
2017-08-15T22:10:02.885Z,18.50
2017-08-15T22:12:30.436Z,18.50
2017-08-15T22:14:57.953Z,18.50
2017-08-15T22:17:25.483Z,18.50
2017-08-15T22:19:53.782Z,18.40
2017-08-15T22:22:21.307Z,18.40
2017-08-15T22:24:49.589Z,18.40
2017-08-15T22:27:17.902Z,18.40
2017-08-15T22:29:45.430Z,18.40
2017-08-15T22:32:12.970Z,18.40
2017-08-15T22:34:40.506Z,18.40
2017-08-15T22:37:08.039Z,18.40
2017-08-15T22:39:35.558Z,18.40
2017-08-15T22:42:03.864Z,18.40
2017-08-15T22:44:31.386Z,18.30
2017-08-15T22:46:59.678Z,18.40
2017-08-15T22:49:28.091Z,18.40
2017-08-15T22:51:55.617Z,18.30
2017-08-15T22:54:23.905Z,18.30
2017-08-15T22:56:51.450Z,18.30
2017-08-15T22:59:19.739Z,18.20
2017-08-15T23:01:47.259Z,18.20
2017-08-15T23:04:14.807Z,18.20
2017-08-15T23:06:42.331Z,18.20
2017-08-15T23:09:09.849Z,18.20
2017-08-15T23:11:37.390Z,18.20
2017-08-15T23:14:04.908Z,18.20
2017-08-15T23:16:32.436Z,18.20
2017-08-15T23:19:00.743Z,18.20
2017-08-15T23:21:28.274Z,18.20
2017-08-15T23:23:56.560Z,18.20
2017-08-15T23:26:24.110Z,18.20
2017-08-15T23:28:52.398Z,18.20
2017-08-15T23:31:19.925Z,18.20
2017-08-15T23:33:47.482Z,18.20
2017-08-15T23:36:15.006Z,18.20
2017-08-15T23:38:42.529Z,18.20
2017-08-15T23:41:10.850Z,18.20
2017-08-15T23:43:38.397Z,18.20
2017-08-15T23:46:06.177Z,18.30
2017-08-15T23:48:33.822Z,18.30
2017-08-15T23:51:01.341Z,18.30
2017-08-15T23:53:29.629Z,18.30
2017-08-15T23:55:57.170Z,18.20
2017-08-15T23:58:25.451Z,18.30
